Interlachen, Florida
Current Conditions -  °F | °C
As of 2:53 AM on Friday 31 Oct 2014 (Local Time) from KGNV Reporting Station
Overcast Overcast  
Wind Chill: 61°   Ceiling: 4500
Heat Index: 61°   Visibility: 10mi
Dew Point: 56°   Wind: 5mph
Humidity: 83%   Direction: 290°WNW
Pressure: 29.88"   Gusts: NA
Location:  29.62°N, 81.9°W
Report Text: KGNV 310653Z AUTO 29004KT 10SM OVC045 16/13 A2988 RMK AO2 SLP117 T01610133
Loading
Personal Weather Stations






























Interactive Weather Map
Tropical Storm Tracking
New forecast layout! Learn more

10-Day Weather Forecast

Advertisements
Track Severe Weather on mobile